Time;durP1;ratioP1;P1;durP2;ratioP2;P2;SDS_P1;SDS_P2;PMS_P1;PMS_P2;Temp;Humidity;BMP_temperature;BMP_pressure;BME280_temperature;BME280_humidity;BME280_pressure;Samples;Min_cycle;Max_cycle;Signal;HPM_P1;HPM_P2
2021/04/28 00:00:32;;;;;;;15.40;7.07;;;;;;;9.57;40.53;100719.44;5041877;28;20052;-70
2021/04/28 00:02:59;;;;;;;13.77;6.97;;;;;;;9.58;40.31;100736.78;5037267;28;20052;-70
2021/04/28 00:05:25;;;;;;;12.80;6.45;;;;;;;9.52;40.53;100730.31;5063786;28;20056;-70
2021/04/28 00:07:52;;;;;;;11.63;7.50;;;;;;;9.42;40.54;100712.03;5034222;28;20088;-70
2021/04/28 00:10:23;;;;;;;12.93;6.93;;;;;;;9.43;41.14;100726.78;5054035;28;20056;-70
2021/04/28 00:12:49;;;;;;;14.63;7.35;;;;;;;9.42;40.99;100725.09;5058546;28;20067;-70
2021/04/28 00:15:19;;;;;;;12.60;7.30;;;;;;;9.38;40.89;100726.34;5047111;28;20480;-70
2021/04/28 00:17:46;;;;;;;14.23;7.30;;;;;;;9.33;41.02;100725.13;5064639;28;20508;-70
2021/04/28 00:20:17;;;;;;;12.23;7.05;;;;;;;9.32;41.07;100724.31;5058593;28;20143;-70
2021/04/28 00:22:43;;;;;;;12.23;7.57;;;;;;;9.23;40.91;100719.91;5041447;28;20466;-70
2021/04/28 00:25:14;;;;;;;12.45;7.45;;;;;;;9.21;41.37;100713.97;5039958;28;20056;-70
2021/04/28 00:27:40;;;;;;;15.15;7.22;;;;;;;9.18;41.40;100722.13;5061495;28;20052;-70
2021/04/28 00:30:09;;;;;;;16.92;7.72;;;;;;;9.19;42.04;100721.16;5060604;28;20064;-69
2021/04/28 00:32:36;;;;;;;13.45;6.32;;;;;;;9.16;41.80;100716.22;5063782;28;20470;-69
2021/04/28 00:35:04;;;;;;;10.93;7.38;;;;;;;9.14;41.42;100710.28;5062149;28;20159;-70
2021/04/28 00:37:30;;;;;;;13.20;7.75;;;;;;;9.13;41.47;100706.00;5041862;28;20721;-72
2021/04/28 00:39:56;;;;;;;15.25;7.20;;;;;;;9.12;41.63;100705.19;5061024;28;20103;-71
2021/04/28 00:42:22;;;;;;;11.57;7.07;;;;;;;9.09;42.00;100706.31;5058396;28;20048;-72
2021/04/28 00:44:48;;;;;;;12.98;7.70;;;;;;;9.08;42.00;100698.59;5066571;28;20411;-72
2021/04/28 00:47:15;;;;;;;14.57;7.03;;;;;;;9.04;41.98;100705.06;5043488;28;20122;-70
2021/04/28 00:49:41;;;;;;;12.45;7.55;;;;;;;9.02;41.79;100697.34;5062260;28;20044;-70
2021/04/28 00:52:08;;;;;;;12.07;7.00;;;;;;;9.00;42.06;100695.84;5063236;28;20507;-70
2021/04/28 00:54:35;;;;;;;14.20;7.07;;;;;;;8.95;41.81;100687.59;5057036;28;20573;-70
2021/04/28 00:57:03;;;;;;;23.02;7.85;;;;;;;8.93;42.05;100690.34;5067188;28;20087;-72
2021/04/28 00:59:29;;;;;;;18.20;6.88;;;;;;;8.90;42.09;100688.81;5058313;28;20049;-70
2021/04/28 01:01:56;;;;;;;13.98;7.20;;;;;;;8.87;42.08;100693.50;5061860;28;20071;-70
2021/04/28 01:04:22;;;;;;;13.73;6.90;;;;;;;8.86;41.77;100684.00;5052465;28;20067;-70
2021/04/28 01:06:50;;;;;;;14.55;7.50;;;;;;;8.85;41.54;100690.22;5064262;28;20053;-71
2021/04/28 01:09:17;;;;;;;17.98;7.55;;;;;;;8.76;41.79;100670.09;5046423;28;20162;-70
2021/04/28 01:11:43;;;;;;;11.88;7.65;;;;;;;8.74;41.60;100674.66;5058318;28;20052;-70
2021/04/28 01:14:10;;;;;;;13.70;8.10;;;;;;;8.73;41.74;100683.47;5064654;28;20547;-73
2021/04/28 01:16:36;;;;;;;11.02;7.13;;;;;;;8.73;41.92;100680.84;5057298;28;20053;-70
2021/04/28 01:19:04;;;;;;;21.30;7.50;;;;;;;8.59;41.60;100672.44;5059441;28;20041;-72
2021/04/28 01:21:31;;;;;;;14.77;6.85;;;;;;;8.65;42.07;100682.34;5057886;28;20053;-70
2021/04/28 01:23:57;;;;;;;18.15;7.53;;;;;;;8.60;41.85;100670.66;5065523;28;20053;-72
2021/04/28 01:26:28;;;;;;;15.88;6.70;;;;;;;8.62;41.71;100679.19;5064318;28;20048;-71
2021/04/28 01:28:59;;;;;;;19.25;7.78;;;;;;;8.60;42.36;100671.47;5042479;28;20457;-70
2021/04/28 01:31:29;;;;;;;13.98;7.38;;;;;;;8.61;41.96;100667.09;5061453;28;20049;-70
2021/04/28 01:33:59;;;;;;;14.65;7.53;;;;;;;8.54;42.11;100658.13;5058899;28;20062;-70
2021/04/28 01:36:33;;;;;;;13.40;7.20;;;;;;;8.57;42.05;100671.75;5063073;28;20052;-70
2021/04/28 01:39:05;;;;;;;18.70;7.68;;;;;;;8.53;42.09;100670.38;5057074;28;20415;-71
2021/04/28 01:41:36;;;;;;;14.82;7.38;;;;;;;8.56;41.99;100662.25;5056597;28;20056;-70
2021/04/28 01:44:03;;;;;;;13.95;7.43;;;;;;;8.56;41.36;100664.06;5055333;28;20052;-70
2021/04/28 01:46:30;;;;;;;17.58;7.75;;;;;;;8.52;41.93;100661.69;5057805;28;20044;-71
2021/04/28 01:48:57;;;;;;;12.15;6.85;;;;;;;8.52;41.95;100658.25;5047122;28;20431;-70
2021/04/28 01:51:23;;;;;;;20.75;7.57;;;;;;;8.54;41.58;100660.75;5042930;28;20442;-71
2021/04/28 01:53:50;;;;;;;16.23;7.53;;;;;;;8.54;42.12;100655.53;5063878;28;20151;-71
2021/04/28 01:56:16;;;;;;;14.48;7.65;;;;;;;8.48;41.69;100654.28;5061204;28;20048;-70
2021/04/28 01:58:43;;;;;;;16.75;6.97;;;;;;;8.46;42.01;100659.63;5060515;28;20109;-71
2021/04/28 02:01:10;;;;;;;16.30;7.40;;;;;;;8.47;41.99;100655.25;5056222;28;20053;-70
2021/04/28 02:03:37;;;;;;;19.75;7.47;;;;;;;8.45;41.52;100660.63;5056938;28;20049;-71
2021/04/28 02:06:05;;;;;;;15.27;7.57;;;;;;;8.42;41.74;100662.66;5063050;28;20063;-71
2021/04/28 02:08:32;;;;;;;14.15;7.68;;;;;;;8.39;41.96;100648.06;5056909;28;20089;-70
2021/04/28 02:10:59;;;;;;;12.35;7.05;;;;;;;8.41;41.93;100658.34;5061945;28;20048;-71
2021/04/28 02:13:26;;;;;;;15.63;7.95;;;;;;;8.35;42.14;100653.69;5053770;28;20052;-71
2021/04/28 02:15:54;;;;;;;17.92;7.82;;;;;;;8.35;42.70;100656.28;5064530;28;20518;-70
2021/04/28 02:18:21;;;;;;;19.98;8.55;;;;;;;8.29;42.31;100653.28;5057685;28;20132;-70
2021/04/28 02:20:48;;;;;;;18.27;7.88;;;;;;;8.22;42.42;100649.53;5064496;28;20052;-71
2021/04/28 02:23:15;;;;;;;18.27;7.57;;;;;;;8.22;42.73;100656.56;5064119;28;20111;-70
2021/04/28 02:25:42;;;;;;;16.70;7.93;;;;;;;8.17;42.70;100650.91;5054275;28;20048;-70
2021/04/28 02:28:08;;;;;;;11.27;7.93;;;;;;;8.09;43.20;100649.78;5060380;28;20583;-70
2021/04/28 02:30:34;;;;;;;16.60;7.90;;;;;;;8.12;43.12;100648.72;5059109;28;20056;-70
2021/04/28 02:33:01;;;;;;;18.13;8.07;;;;;;;8.03;43.34;100634.66;5045986;28;20437;-71
2021/04/28 02:35:28;;;;;;;14.90;8.15;;;;;;;8.04;42.77;100648.56;5057535;28;20559;-71
2021/04/28 02:38:09;;;;;;;16.25;7.75;;;;;;;7.95;42.87;100629.28;5045386;28;20492;-71
2021/04/28 02:40:37;;;;;;;21.35;8.82;;;;;;;7.95;43.32;100642.34;5061396;28;20052;-70
2021/04/28 02:43:03;;;;;;;18.52;8.90;;;;;;;7.93;43.32;100644.25;5055696;28;20052;-71
2021/04/28 02:45:31;;;;;;;17.10;8.55;;;;;;;7.92;42.78;100643.44;5045270;28;20048;-71
2021/04/28 02:48:00;;;;;;;14.52;8.10;;;;;;;7.84;43.20;100630.22;5059233;28;20105;-70
2021/04/28 02:50:28;;;;;;;18.17;7.82;;;;;;;7.87;43.53;100631.72;5061747;28;20044;-71
2021/04/28 02:52:56;;;;;;;14.95;7.75;;;;;;;7.85;43.70;100628.44;5055142;28;20048;-71
2021/04/28 02:55:22;;;;;;;15.30;8.35;;;;;;;7.83;43.63;100635.56;5061038;28;20458;-71
2021/04/28 02:57:50;;;;;;;22.33;8.67;;;;;;;7.79;43.49;100626.34;5069479;28;20408;-71
2021/04/28 03:00:20;;;;;;;13.10;7.88;;;;;;;7.73;43.46;100620.69;5043323;28;20052;-71
2021/04/28 03:02:48;;;;;;;14.77;8.20;;;;;;;7.75;43.19;100628.41;5063090;28;20106;-71
2021/04/28 03:05:20;;;;;;;18.65;8.63;;;;;;;7.75;43.22;100632.81;5038631;28;20401;-71
2021/04/28 03:07:47;;;;;;;15.02;8.02;;;;;;;7.73;43.48;100619.88;5058108;28;20056;-71
2021/04/28 03:10:15;;;;;;;17.65;8.93;;;;;;;7.69;43.94;100621.09;5057195;28;20052;-71
2021/04/28 03:12:43;;;;;;;17.23;8.70;;;;;;;7.66;43.86;100619.59;5061462;28;20048;-71
2021/04/28 03:15:12;;;;;;;17.70;8.80;;;;;;;7.54;44.14;100610.19;5056998;28;20048;-71
2021/04/28 03:17:46;;;;;;;15.05;9.45;;;;;;;7.53;44.52;100621.59;5066293;28;20157;-71
2021/04/28 03:20:14;;;;;;;15.95;8.73;;;;;;;7.50;44.62;100611.41;5060653;28;20082;-71
2021/04/28 03:22:41;;;;;;;18.60;8.55;;;;;;;7.46;44.12;100602.19;5054012;28;20102;-71
2021/04/28 03:25:09;;;;;;;17.92;8.73;;;;;;;7.40;45.28;100613.97;5063170;28;20110;-71
2021/04/28 03:27:35;;;;;;;18.15;9.57;;;;;;;7.42;44.68;100617.28;5057050;28;20115;-71
2021/04/28 03:30:04;;;;;;;15.07;8.55;;;;;;;7.38;45.50;100615.06;5064476;28;20071;-71
2021/04/28 03:32:30;;;;;;;;;;;;;;;7.32;45.15;100617.22;5045552;28;20452;-71
2021/04/28 03:34:57;;;;;;;21.98;9.25;;;;;;;7.30;45.17;100613.94;5058998;28;19967;-72
2021/04/28 03:37:23;;;;;;;19.50;8.82;;;;;;;7.28;45.38;100612.41;5066968;28;20063;-71
2021/04/28 03:39:49;;;;;;;16.13;8.82;;;;;;;7.24;45.67;100606.63;5057558;28;20057;-71
2021/04/28 03:42:16;;;;;;;18.13;8.50;;;;;;;7.16;46.43;100610.84;5061587;28;20053;-72
2021/04/28 03:44:43;;;;;;;23.25;9.80;;;;;;;7.23;45.42;100614.56;5058300;28;20098;-71
2021/04/28 03:47:09;;;;;;;20.83;9.50;;;;;;;7.17;45.70;100615.91;5043330;28;20052;-71
2021/04/28 03:49:35;;;;;;;16.75;10.38;;;;;;;7.09;46.05;100606.13;5057230;28;20662;-71
2021/04/28 03:52:01;;;;;;;17.35;8.70;;;;;;;7.11;46.09;100613.84;5047296;28;20052;-71
2021/04/28 03:54:28;;;;;;;17.10;8.63;;;;;;;7.06;46.75;100611.63;5066670;28;20509;-71
2021/04/28 03:56:54;;;;;;;17.60;9.82;;;;;;;7.04;46.50;100615.31;5046360;28;20053;-71
2021/04/28 03:59:20;;;;;;;17.88;9.40;;;;;;;6.96;46.73;100604.69;5066815;28;20051;-71
2021/04/28 04:01:46;;;;;;;17.00;10.15;;;;;;;6.99;46.36;100625.28;5058559;28;20048;-71
2021/04/28 04:04:12;;;;;;;17.63;8.95;;;;;;;6.95;46.44;100611.69;5060629;28;20060;-71
2021/04/28 04:06:39;;;;;;;17.45;9.30;;;;;;;6.96;46.46;100609.88;5043819;28;20048;-70
2021/04/28 04:09:06;;;;;;;13.48;8.65;;;;;;;6.98;46.32;100615.81;5064408;28;20056;-71
2021/04/28 04:11:32;;;;;;;16.55;9.38;;;;;;;6.87;46.52;100604.50;5066684;28;20056;-71
2021/04/28 04:13:58;;;;;;;15.95;8.93;;;;;;;6.89;46.70;100613.00;5058724;28;20430;-71
2021/04/28 04:16:25;;;;;;;19.10;9.57;;;;;;;6.90;47.12;100617.28;5058132;28;20110;-71
2021/04/28 04:18:51;;;;;;;17.23;9.20;;;;;;;6.90;46.59;100619.06;5058620;28;20044;-71
2021/04/28 04:21:17;;;;;;;18.00;9.50;;;;;;;6.83;46.73;100613.53;5061224;28;20074;-71
2021/04/28 04:23:43;;;;;;;19.42;9.15;;;;;;;6.84;46.68;100616.94;5059854;28;20052;-69
2021/04/28 04:26:10;;;;;;;22.33;9.93;;;;;;;6.82;46.68;100609.28;5065897;28;20582;-71
2021/04/28 04:28:36;;;;;;;19.75;9.40;;;;;;;6.82;47.47;100611.88;5061822;28;20530;-72
2021/04/28 04:31:02;;;;;;;21.20;9.88;;;;;;;6.73;46.86;100610.84;5057230;28;20125;-70
2021/04/28 04:33:28;;;;;;;20.38;9.98;;;;;;;6.77;47.15;100619.25;5065409;28;20067;-71
2021/04/28 04:35:54;;;;;;;21.60;10.13;;;;;;;6.69;47.37;100612.06;5060738;28;20110;-71
2021/04/28 04:38:20;;;;;;;21.65;9.90;;;;;;;6.73;47.20;100617.84;5065680;28;20074;-70
2021/04/28 04:40:47;;;;;;;20.23;10.45;;;;;;;6.74;46.72;100622.09;5060985;28;20045;-70
2021/04/28 04:43:13;;;;;;;17.63;9.27;;;;;;;6.71;47.11;100606.72;5060488;28;20641;-70
2021/04/28 04:45:39;;;;;;;27.55;11.13;;;;;;;6.71;46.93;100612.75;5062219;28;20105;-70
2021/04/28 04:48:08;;;;;;;18.55;9.27;;;;;;;6.65;47.42;100605.44;5059794;28;20059;-70
2021/04/28 04:50:35;;;;;;;20.08;9.30;;;;;;;6.70;47.66;100603.31;5064862;28;20558;-70
2021/04/28 04:53:02;;;;;;;17.10;9.43;;;;;;;6.77;47.13;100600.19;5060102;28;20055;-71
2021/04/28 04:55:29;;;;;;;17.13;8.63;;;;;;;6.79;47.37;100603.50;5065903;28;20142;-70
2021/04/28 04:57:55;;;;;;;19.20;9.85;;;;;;;6.82;47.04;100606.69;5058218;28;20064;-70
2021/04/28 05:00:22;;;;;;;19.45;8.75;;;;;;;6.79;46.24;100593.88;5062930;28;20052;-69
2021/04/28 05:02:49;;;;;;;22.95;9.80;;;;;;;6.87;46.19;100601.06;5053918;28;20110;-69
2021/04/28 05:05:15;;;;;;;30.13;9.75;;;;;;;6.82;46.69;100598.84;5060116;28;20151;-70
2021/04/28 05:07:42;;;;;;;20.45;9.48;;;;;;;6.85;46.80;100606.41;5046349;28;20056;-69
2021/04/28 05:10:10;;;;;;;20.30;10.15;;;;;;;6.83;46.96;100607.50;5058862;28;20466;-70
2021/04/28 05:12:37;;;;;;;23.02;10.68;;;;;;;6.87;47.55;100607.09;5057220;28;20508;-70
2021/04/28 05:15:07;;;;;;;19.83;10.23;;;;;;;6.90;47.20;100606.84;5058585;28;20110;-70
2021/04/28 05:17:33;;;;;;;20.30;9.85;;;;;;;6.95;47.75;100600.44;5065983;28;20057;-70
2021/04/28 05:19:59;;;;;;;24.55;9.35;;;;;;;6.95;47.27;100593.44;5065015;28;20048;-70
2021/04/28 05:22:27;;;;;;;23.08;9.70;;;;;;;7.05;48.19;100607.34;5059627;28;20110;-70
2021/04/28 05:24:53;;;;;;;16.42;9.98;;;;;;;7.07;47.48;100607.22;5056316;28;20188;-70
2021/04/28 05:27:19;;;;;;;17.65;9.75;;;;;;;7.12;47.64;100603.28;5058109;28;20049;-70
2021/04/28 05:29:45;;;;;;;18.70;8.82;;;;;;;7.18;47.92;100604.53;5065572;28;20040;-70
2021/04/28 05:32:12;;;;;;;19.83;9.00;;;;;;;7.21;47.52;100599.03;5057630;28;20051;-70
2021/04/28 05:34:38;;;;;;;25.40;10.13;;;;;;;7.27;47.73;100603.78;5063685;28;20087;-70
2021/04/28 05:37:07;;;;;;;21.77;9.15;;;;;;;7.33;47.39;100594.56;5060818;28;20476;-71
2021/04/28 05:39:33;;;;;;;;;;;;;;;7.46;47.81;100603.00;5054857;28;20064;-71
2021/04/28 05:41:59;;;;;;;22.90;10.10;;;;;;;7.50;47.21;100600.97;5067542;28;20471;-71
2021/04/28 05:44:25;;;;;;;32.00;12.07;;;;;;;7.52;46.69;100591.22;5060054;28;20044;-71
2021/04/28 05:46:51;;;;;;;29.52;10.75;;;;;;;7.59;47.18;100600.19;5057925;28;20063;-71
2021/04/28 05:49:18;;;;;;;24.52;9.18;;;;;;;7.65;47.20;100597.03;5057354;28;20040;-71
2021/04/28 05:51:44;;;;;;;15.90;8.70;;;;;;;7.72;46.92;100598.16;5060631;28;20086;-71
2021/04/28 05:54:10;;;;;;;17.80;9.52;;;;;;;7.73;46.94;100586.75;5061746;28;20126;-71
2021/04/28 05:56:40;;;;;;;20.00;10.13;;;;;;;7.80;45.92;100592.28;5040881;28;20052;-71
2021/04/28 05:59:07;;;;;;;19.83;8.88;;;;;;;7.87;45.81;100593.38;5063721;28;20135;-71
2021/04/28 06:01:33;;;;;;;23.23;9.98;;;;;;;7.88;46.02;100584.59;5057397;28;20585;-71
2021/04/28 06:03:59;;;;;;;22.05;9.90;;;;;;;7.99;45.56;100591.47;5063118;28;20066;-71
2021/04/28 06:06:26;;;;;;;20.08;9.93;;;;;;;8.08;45.92;100592.47;5050766;28;20057;-71
2021/04/28 06:08:52;;;;;;;19.50;10.13;;;;;;;8.16;45.71;100584.75;5051332;28;20508;-71
2021/04/28 06:11:19;;;;;;;19.85;10.05;;;;;;;8.19;45.19;100584.47;5062496;28;20491;-71
2021/04/28 06:13:47;;;;;;;17.50;9.95;;;;;;;8.25;45.34;100572.66;5057140;28;20052;-70
2021/04/28 06:16:14;;;;;;;15.70;8.73;;;;;;;8.32;44.95;100574.59;5064038;28;20106;-70
2021/04/28 06:18:44;;;;;;;26.80;12.50;;;;;;;8.42;44.88;100569.38;5036638;28;20487;-71
2021/04/28 06:21:10;;;;;;;24.40;11.40;;;;;;;8.52;44.92;100575.44;5066217;28;20048;-72
2021/04/28 06:23:38;;;;;;;17.02;10.30;;;;;;;8.59;44.31;100574.91;5058200;28;20044;-72
2021/04/28 06:26:04;;;;;;;20.08;10.20;;;;;;;8.63;44.17;100578.88;5064380;28;20113;-72
2021/04/28 06:28:31;;;;;;;21.70;10.18;;;;;;;8.69;43.96;100576.53;5060171;28;20110;-72
2021/04/28 06:30:57;;;;;;;18.23;9.93;;;;;;;8.77;44.77;100570.59;5055876;28;20083;-72
2021/04/28 06:33:23;;;;;;;20.15;10.75;;;;;;;8.87;44.28;100578.41;5058797;28;20052;-72
2021/04/28 06:35:50;;;;;;;19.52;9.85;;;;;;;8.93;44.36;100579.66;5056681;28;20048;-72
2021/04/28 06:38:16;;;;;;;16.10;10.10;;;;;;;8.98;44.60;100580.88;5063463;28;20110;-72
2021/04/28 06:40:42;;;;;;;25.98;11.50;;;;;;;8.98;43.77;100575.66;5057736;28;20041;-72
2021/04/28 06:43:08;;;;;;;22.75;10.68;;;;;;;9.07;44.02;100585.22;5058827;28;20056;-72
2021/04/28 06:45:35;;;;;;;24.73;11.40;;;;;;;9.05;43.87;100581.13;5051358;28;20060;-72
2021/04/28 06:48:03;;;;;;;21.85;11.20;;;;;;;9.05;44.60;100574.09;5055602;28;20048;-72
2021/04/28 06:50:29;;;;;;;25.83;10.98;;;;;;;9.18;44.48;100581.63;5063302;28;20467;-71
2021/04/28 06:52:55;;;;;;;18.23;10.48;;;;;;;9.20;44.65;100584.13;5040968;28;20056;-72
2021/04/28 06:55:22;;;;;;;21.92;11.43;;;;;;;9.28;45.29;100582.41;5057889;28;20067;-72
2021/04/28 06:58:00;;;;;;;23.60;11.93;;;;;;;9.34;45.05;100580.19;5057537;28;20473;-72
2021/04/28 07:00:29;;;;;;;22.83;11.70;;;;;;;9.44;44.89;100591.44;5042469;28;20532;-73
2021/04/28 07:02:58;;;;;;;21.45;10.75;;;;;;;9.48;45.34;100583.16;5053211;28;20455;-72
2021/04/28 07:05:26;;;;;;;19.13;11.23;;;;;;;9.55;44.80;100586.03;5068749;28;20123;-71
2021/04/28 07:07:54;;;;;;;21.88;10.95;;;;;;;9.64;44.66;100582.56;5065379;28;20594;-73
2021/04/28 07:10:21;;;;;;;29.40;11.57;;;;;;;9.69;44.52;100571.63;5057558;28;20082;-74
2021/04/28 07:12:47;;;;;;;23.58;11.55;;;;;;;9.77;44.85;100582.19;5065354;28;20056;-73
2021/04/28 07:15:13;;;;;;;23.63;10.98;;;;;;;9.81;44.08;100573.06;5053771;28;20152;-74
2021/04/28 07:17:39;;;;;;;25.23;11.85;;;;;;;9.84;44.53;100564.91;5062446;28;20044;-74
2021/04/28 07:20:08;;;;;;;21.05;11.20;;;;;;;9.93;44.77;100567.63;5036585;28;20062;-73
2021/04/28 07:22:35;;;;;;;23.63;11.77;;;;;;;10.10;44.52;100578.09;5049322;28;20044;-73
2021/04/28 07:25:01;;;;;;;24.48;12.35;;;;;;;10.14;43.78;100580.44;5071843;28;20075;-73
2021/04/28 07:27:28;;;;;;;24.05;12.02;;;;;;;10.23;44.13;100579.53;5061045;28;20053;-73
2021/04/28 07:29:57;;;;;;;24.95;13.15;;;;;;;10.31;44.00;100582.28;5038992;28;20567;-73
2021/04/28 07:32:24;;;;;;;25.80;13.13;;;;;;;10.40;43.51;100586.59;5045626;28;20068;-73
2021/04/28 07:34:50;;;;;;;21.17;12.15;;;;;;;10.49;43.54;100588.31;5050167;28;20151;-73
2021/04/28 07:37:16;;;;;;;28.02;12.10;;;;;;;10.52;41.91;100589.81;5062233;28;20488;-73
2021/04/28 07:39:43;;;;;;;24.75;11.88;;;;;;;10.56;42.45;100577.22;5047489;28;20069;-74
2021/04/28 07:42:09;;;;;;;25.45;11.82;;;;;;;10.70;42.61;100587.16;5064227;28;20593;-73
2021/04/28 07:44:35;;;;;;;27.15;11.73;;;;;;;10.83;44.32;100584.13;5055207;28;20056;-74
2021/04/28 07:47:02;;;;;;;27.30;12.85;;;;;;;10.95;43.83;100587.34;5066431;28;20084;-73
2021/04/28 07:49:28;;;;;;;25.25;12.85;;;;;;;11.04;43.58;100576.72;5046005;28;20098;-73
2021/04/28 07:51:54;;;;;;;20.15;12.30;;;;;;;11.14;43.43;100571.38;5067271;28;20053;-74
2021/04/28 07:54:22;;;;;;;25.83;12.73;;;;;;;11.19;42.53;100571.75;5066761;28;20485;-73
2021/04/28 07:56:49;;;;;;;21.42;11.30;;;;;;;11.23;43.01;100572.22;5063593;28;20504;-73
2021/04/28 07:59:15;;;;;;;20.80;11.95;;;;;;;11.29;43.64;100576.88;5062407;28;20056;-73
2021/04/28 08:01:42;;;;;;;23.70;12.25;;;;;;;11.35;43.68;100560.47;5063975;28;20055;-74
2021/04/28 08:04:08;;;;;;;23.50;11.93;;;;;;;11.44;43.07;100562.13;5051523;28;20484;-73
2021/04/28 08:06:37;;;;;;;23.60;12.30;;;;;;;11.54;43.41;100562.00;5061892;28;20059;-72
2021/04/28 08:09:05;;;;;;;22.50;12.25;;;;;;;11.70;43.73;100557.78;5047809;28;20048;-74
2021/04/28 08:11:31;;;;;;;27.40;13.05;;;;;;;11.83;43.28;100561.59;5053328;28;20067;-73
2021/04/28 08:13:57;;;;;;;27.38;12.68;;;;;;;12.00;43.26;100554.63;5050315;28;20087;-73
2021/04/28 08:16:24;;;;;;;26.45;13.27;;;;;;;12.22;42.67;100550.53;5065953;28;20058;-74
2021/04/28 08:18:50;;;;;;;25.17;12.15;;;;;;;12.56;41.51;100561.88;5060736;28;20160;-73
2021/04/28 08:21:16;;;;;;;25.52;12.95;;;;;;;12.73;40.90;100555.59;5067117;28;20056;-74
2021/04/28 08:23:43;;;;;;;22.08;11.90;;;;;;;12.92;40.31;100553.59;5056735;28;20140;-74
2021/04/28 08:26:10;;;;;;;21.13;12.68;;;;;;;13.03;40.52;100551.44;5062038;28;20055;-73
2021/04/28 08:28:40;;;;;;;23.25;13.52;;;;;;;13.21;40.15;100545.09;5062156;28;20650;-74
2021/04/28 08:31:14;;;;;;;23.65;13.23;;;;;;;13.60;40.28;100536.41;5066427;28;20102;-74
2021/04/28 08:33:41;;;;;;;22.80;13.80;;;;;;;13.89;39.29;100529.66;5065266;28;20052;-74
2021/04/28 08:36:08;;;;;;;32.10;13.50;;;;;;;14.05;39.48;100524.25;5044421;28;20048;-73
2021/04/28 08:38:36;;;;;;;25.08;13.88;;;;;;;14.11;38.23;100531.44;5055336;28;20110;-74
2021/04/28 08:41:04;;;;;;;31.20;13.45;;;;;;;14.27;38.73;100534.97;5059221;28;20813;-74
2021/04/28 08:43:30;;;;;;;24.13;13.88;;;;;;;14.07;38.77;100527.53;5048380;28;20423;-73
2021/04/28 08:45:59;;;;;;;27.70;14.00;;;;;;;14.26;38.46;100531.50;5060913;28;20521;-74
2021/04/28 08:48:26;;;;;;;24.23;13.40;;;;;;;14.52;38.17;100539.03;5059275;28;20048;-74
2021/04/28 08:50:52;;;;;;;26.83;13.63;;;;;;;14.80;36.72;100533.19;5065009;28;20431;-73
2021/04/28 08:53:19;;;;;;;21.35;13.27;;;;;;;15.15;37.21;100538.75;5059429;28;20052;-72
2021/04/28 08:55:46;;;;;;;31.80;14.77;;;;;;;15.41;36.28;100533.78;5066034;28;20072;-73
2021/04/28 08:58:13;;;;;;;25.52;14.52;;;;;;;15.71;36.20;100535.56;5059553;28;20195;-74
2021/04/28 09:00:39;;;;;;;33.90;15.25;;;;;;;15.95;35.29;100537.03;5065782;28;20450;-74
2021/04/28 09:03:06;;;;;;;26.20;15.35;;;;;;;16.19;34.98;100536.69;5062614;28;20064;-74
2021/04/28 09:05:34;;;;;;;28.80;15.18;;;;;;;16.34;34.54;100522.53;5063036;28;20044;-75
2021/04/28 09:08:07;;;;;;;30.58;16.05;;;;;;;16.51;34.71;100528.38;5061983;28;20893;-74
2021/04/28 09:10:33;;;;;;;26.70;15.50;;;;;;;16.69;33.81;100514.66;5064809;28;20094;-73
2021/04/28 09:13:04;;;;;;;24.45;15.23;;;;;;;16.65;33.17;100508.91;5066210;28;20372;-74
2021/04/28 09:15:32;;;;;;;28.15;14.32;;;;;;;16.84;33.86;100503.94;5062401;28;20053;-75
2021/04/28 09:17:59;;;;;;;29.30;15.15;;;;;;;17.02;34.57;100514.06;5049543;28;20931;-75
2021/04/28 09:20:38;;;;;;;33.67;14.80;;;;;;;17.07;33.62;100504.50;5042245;28;20052;-74
2021/04/28 09:23:19;;;;;;;29.30;15.65;;;;;;;17.20;33.27;100506.38;5065494;28;20411;-74
2021/04/28 09:25:50;;;;;;;24.15;14.30;;;;;;;17.32;33.81;100501.34;5059867;28;20082;-75
2021/04/28 09:28:32;;;;;;;24.85;14.45;;;;;;;17.52;33.16;100501.38;5047108;28;20048;-75
2021/04/28 09:31:06;;;;;;;27.30;15.40;;;;;;;17.62;33.31;100503.66;5061148;28;20614;-74
2021/04/28 09:33:49;;;;;;;22.00;14.27;;;;;;;17.81;33.05;100500.22;5065102;28;20056;-75
2021/04/28 09:36:24;;;;;;;27.17;14.95;;;;;;;17.99;32.68;100497.00;5063750;28;20052;-74
2021/04/28 09:38:56;;;;;;;27.88;15.02;;;;;;;18.26;33.22;100495.19;5062384;28;20743;-74
2021/04/28 09:41:42;;;;;;;26.38;15.10;;;;;;;18.36;32.63;100497.44;5061518;28;20071;-75
2021/04/28 09:44:17;;;;;;;23.38;15.43;;;;;;;18.55;32.01;100496.59;5055175;28;20578;-75
2021/04/28 09:47:08;;;;;;;26.15;15.05;;;;;;;18.42;32.25;100472.69;5047923;28;20045;-74
2021/04/28 09:49:55;;;;;;;28.88;15.82;;;;;;;18.49;32.49;100496.63;5059332;28;20207;-75
2021/04/28 09:52:37;;;;;;;23.50;15.98;;;;;;;18.30;32.35;100485.78;5068532;28;20056;-75
2021/04/28 09:55:07;;;;;;;34.90;15.82;;;;;;;18.36;31.82;100484.16;5057537;28;20059;-74
2021/04/28 09:57:40;;;;;;;24.98;15.35;;;;;;;18.16;31.86;100478.88;5066288;28;20059;-73
2021/04/28 10:00:24;;;;;;;31.42;16.95;;;;;;;18.35;31.71;100472.72;5060539;28;20068;-74
2021/04/28 10:03:02;;;;;;;34.58;17.40;;;;;;;18.45;32.17;100471.50;5067385;28;20200;-74
2021/04/28 10:05:29;;;;;;;26.17;16.85;;;;;;;18.52;32.05;100470.47;5063968;28;20052;-75
2021/04/28 10:08:10;;;;;;;33.15;15.60;;;;;;;18.71;31.16;100471.41;5063388;28;20067;-74
2021/04/28 10:10:38;;;;;;;30.33;15.80;;;;;;;18.92;31.99;100466.91;5056828;28;20135;-73
2021/04/28 10:13:07;;;;;;;33.60;18.10;;;;;;;19.09;32.40;100465.41;5062820;28;20052;-74
2021/04/28 10:15:35;;;;;;;30.13;16.48;;;;;;;19.11;32.00;100466.03;5045263;28;20256;-74
2021/04/28 10:18:09;;;;;;;33.25;17.45;;;;;;;19.02;31.31;100464.63;5041549;28;20080;-72
2021/04/28 10:20:37;;;;;;;22.75;15.57;;;;;;;18.95;31.58;100453.19;5059555;28;20561;-75
2021/04/28 10:23:12;;;;;;;28.92;16.58;;;;;;;19.06;31.26;100454.38;5054989;28;20903;-74
2021/04/28 10:25:39;;;;;;;28.08;16.10;;;;;;;19.23;30.87;100454.69;5046218;28;20059;-73
2021/04/28 10:28:07;;;;;;;26.20;15.65;;;;;;;19.36;30.74;100450.13;5048055;28;20057;-73
2021/04/28 10:30:40;;;;;;;25.67;16.15;;;;;;;19.46;31.04;100456.81;5054442;28;20106;-73
2021/04/28 10:33:12;;;;;;;30.98;16.00;;;;;;;19.63;31.08;100444.66;5056886;28;20059;-72
2021/04/28 10:35:39;;;;;;;28.27;17.42;;;;;;;19.77;30.78;100442.72;5057346;28;20105;-73
2021/04/28 10:38:05;;;;;;;26.67;16.50;;;;;;;19.88;30.15;100449.22;5061845;28;20056;-73
2021/04/28 10:40:36;;;;;;;27.13;17.27;;;;;;;19.95;29.06;100440.16;5057144;28;20488;-73
2021/04/28 10:43:10;;;;;;;27.23;16.75;;;;;;;20.01;29.76;100443.75;5062608;28;20515;-73
2021/04/28 10:45:38;;;;;;;38.15;16.45;;;;;;;20.11;29.68;100441.44;5058237;28;20060;-73
2021/04/28 10:48:38;;;;;;;30.38;16.42;;;;;;;20.08;29.89;100439.19;5060042;28;20120;-74
2021/04/28 10:51:04;;;;;;;27.25;16.73;;;;;;;20.16;29.82;100435.44;5052324;28;20052;-73
2021/04/28 10:53:30;;;;;;;27.48;16.88;;;;;;;20.27;30.52;100433.94;5067937;28;20059;-74
2021/04/28 10:56:12;;;;;;;29.67;17.52;;;;;;;20.29;29.27;100426.53;5060329;28;20435;-73
2021/04/28 10:58:41;;;;;;;25.48;16.58;;;;;;;20.49;29.07;100423.66;5060580;28;20063;-72
2021/04/28 11:01:19;;;;;;;26.40;16.52;;;;;;;20.69;29.75;100416.28;5062841;28;20802;-72
2021/04/28 11:03:52;;;;;;;;;;;;;;;20.85;29.75;100417.50;5058165;28;20063;-73
2021/04/28 11:06:22;;;;;;;32.70;16.73;;;;;;;21.07;29.57;100412.53;5062992;28;20628;-73
2021/04/28 11:08:59;;;;;;;27.15;16.58;;;;;;;21.35;27.07;100405.78;5038295;28;20052;-74
2021/04/28 11:14:10;;;;;;;31.00;16.80;;;;;;;21.64;25.86;100412.16;5054253;28;20944;-73
2021/04/28 11:16:50;;;;;;;27.30;17.35;;;;;;;21.78;26.23;100403.91;5059826;28;20064;-74
2021/04/28 11:19:22;;;;;;;31.33;16.77;;;;;;;21.96;27.16;100403.00;5039089;28;20048;-72
2021/04/28 11:22:03;;;;;;;28.15;16.50;;;;;;;21.93;26.36;100396.25;5063697;28;20055;-74
2021/04/28 11:24:49;;;;;;;25.52;16.52;;;;;;;21.84;27.04;100408.34;5041960;28;20052;-73
2021/04/28 11:27:46;;;;;;;30.15;16.85;;;;;;;21.77;25.98;100402.28;5041329;28;20053;-72